createdAt,value
2019-04-07T00:00:59.009Z,10.73
2019-04-07T00:01:59.472Z,10.76
2019-04-07T00:02:58.998Z,10.72
2019-04-07T00:03:58.985Z,10.73
2019-04-07T00:05:10.336Z,10.72
2019-04-07T00:05:58.972Z,10.67
2019-04-07T00:06:58.959Z,10.72
2019-04-07T00:07:59.169Z,10.79
2019-04-07T00:08:59.247Z,10.61
2019-04-07T00:09:58.937Z,10.75
2019-04-07T00:10:58.969Z,10.68
2019-04-07T00:11:59.126Z,10.65
2019-04-07T00:12:59.536Z,10.61
2019-04-07T00:13:58.954Z,10.72
2019-04-07T00:14:58.896Z,10.60
2019-04-07T00:15:59.019Z,10.67
2019-04-07T00:16:59.521Z,10.64
2019-04-07T00:17:59.222Z,10.65
2019-04-07T00:18:58.866Z,10.64
2019-04-07T00:19:58.860Z,10.57
2019-04-07T00:20:58.846Z,10.57
2019-04-07T00:21:59.320Z,10.49
2019-04-07T00:22:58.836Z,10.49
2019-04-07T00:23:58.826Z,10.62
2019-04-07T00:24:59.512Z,10.60
2019-04-07T00:25:58.922Z,10.64
2019-04-07T00:26:58.806Z,10.60
2019-04-07T00:27:58.796Z,10.55
2019-04-07T00:28:58.789Z,10.65
2019-04-07T00:29:59.922Z,10.61
2019-04-07T00:30:58.774Z,10.54
2019-04-07T00:31:58.766Z,10.52
2019-04-07T00:32:58.757Z,10.52
2019-04-07T00:33:59.305Z,10.54
2019-04-07T00:34:58.766Z,10.55
2019-04-07T00:35:59.258Z,10.52
2019-04-07T00:36:58.828Z,10.42
2019-04-07T00:37:58.721Z,10.36
2019-04-07T00:38:59.385Z,10.43
2019-04-07T00:39:58.931Z,10.28
2019-04-07T00:40:59.223Z,10.35
2019-04-07T00:41:59.172Z,10.35
2019-04-07T00:42:58.673Z,10.26
2019-04-07T00:43:59.433Z,10.20
2019-04-07T00:44:58.719Z,10.28
2019-04-07T00:45:58.649Z,10.24
2019-04-07T00:46:58.674Z,10.24
2019-04-07T00:47:59.317Z,10.24
2019-04-07T00:48:59.396Z,10.27
2019-04-07T00:49:58.764Z,10.27
2019-04-07T00:50:59.210Z,10.18
2019-04-07T00:51:58.603Z,10.27
2019-04-07T00:52:59.072Z,10.26
2019-04-07T00:53:58.589Z,10.20
2019-04-07T00:54:58.841Z,10.16
2019-04-07T00:55:58.567Z,10.17
2019-04-07T00:56:59.339Z,10.20
2019-04-07T00:57:58.546Z,10.12
2019-04-07T00:58:58.855Z,10.16
2019-04-07T00:59:58.536Z,10.12
2019-04-07T01:00:58.883Z,10.08
2019-04-07T01:01:58.526Z,10.18
2019-04-07T01:02:58.518Z,10.14
2019-04-07T01:03:58.505Z,10.08
2019-04-07T01:04:58.496Z,10.06
2019-04-07T01:05:58.726Z,10.03
2019-04-07T01:06:59.083Z,10.02
2019-04-07T01:07:59.096Z,10.06
2019-04-07T01:08:59.104Z,9.99
2019-04-07T01:09:58.545Z,9.96
2019-04-07T01:10:58.610Z,9.94
2019-04-07T01:11:58.613Z,9.98
2019-04-07T01:12:58.963Z,9.98
2019-04-07T01:13:58.421Z,9.84
2019-04-07T01:14:58.745Z,9.80
2019-04-07T01:15:58.739Z,9.87
2019-04-07T01:16:58.397Z,9.84
2019-04-07T01:17:58.795Z,9.87
2019-04-07T01:18:58.377Z,9.85
2019-04-07T01:19:58.662Z,9.78
2019-04-07T01:20:58.388Z,9.81
2019-04-07T01:21:58.962Z,9.75
2019-04-07T01:22:58.348Z,9.75
2019-04-07T01:23:59.043Z,9.77
2019-04-07T01:24:58.517Z,9.70
2019-04-07T01:25:58.551Z,9.67
2019-04-07T01:26:58.869Z,9.67
2019-04-07T01:27:58.633Z,9.72
2019-04-07T01:28:58.296Z,9.70
2019-04-07T01:29:58.289Z,9.73
2019-04-07T01:30:59.032Z,9.73
2019-04-07T01:31:58.437Z,9.73
2019-04-07T01:32:58.264Z,9.57
2019-04-07T01:33:58.722Z,9.59
2019-04-07T01:34:58.247Z,9.57
2019-04-07T01:35:58.237Z,9.63
2019-04-07T01:36:58.392Z,9.63
2019-04-07T01:37:58.355Z,9.59
2019-04-07T01:38:58.715Z,9.59
2019-04-07T01:39:58.200Z,9.63
2019-04-07T01:40:58.195Z,9.54
2019-04-07T01:41:58.412Z,9.59
2019-04-07T01:42:58.832Z,9.52
2019-04-07T01:43:58.170Z,9.54
2019-04-07T01:44:58.427Z,9.55
2019-04-07T01:45:58.690Z,9.59
2019-04-07T01:46:58.175Z,9.59
2019-04-07T01:47:58.428Z,9.54
2019-04-07T01:48:58.606Z,9.57
2019-04-07T01:49:58.836Z,9.54
2019-04-07T01:50:58.204Z,9.62
2019-04-07T01:51:58.099Z,9.48
2019-04-07T01:52:58.094Z,9.51
2019-04-07T01:53:58.085Z,9.50
2019-04-07T01:55:00.165Z,9.50
2019-04-07T01:55:58.675Z,9.45
2019-04-07T01:56:58.137Z,9.45
2019-04-07T01:57:58.172Z,9.47
2019-04-07T01:58:58.306Z,9.40
2019-04-07T01:59:58.191Z,9.37
2019-04-07T02:00:58.735Z,9.47
2019-04-07T02:01:58.133Z,9.44
2019-04-07T02:02:58.008Z,9.42
2019-04-07T02:03:58.497Z,9.41
2019-04-07T02:04:58.104Z,9.45
2019-04-07T02:06:01.728Z,9.41
2019-04-07T02:06:57.983Z,9.36
2019-04-07T02:07:57.962Z,9.34
2019-04-07T02:08:58.338Z,9.29
2019-04-07T02:09:58.626Z,9.30
2019-04-07T02:10:58.268Z,9.27
2019-04-07T02:11:58.362Z,9.23
2019-04-07T02:12:57.953Z,9.27
2019-04-07T02:13:58.396Z,9.29
2019-04-07T02:14:57.905Z,9.27
2019-04-07T02:15:57.902Z,9.24
2019-04-07T02:16:57.928Z,9.23
2019-04-07T02:17:58.220Z,9.16
2019-04-07T02:18:58.526Z,9.14
2019-04-07T02:19:57.880Z,9.22
2019-04-07T02:20:57.862Z,9.15
2019-04-07T02:21:58.258Z,9.15
2019-04-07T02:22:57.836Z,9.15
2019-04-07T02:23:57.826Z,9.22
2019-04-07T02:24:57.825Z,9.12
2019-04-07T02:25:58.184Z,9.19
2019-04-07T02:26:57.796Z,9.19
2019-04-07T02:27:57.784Z,9.15
2019-04-07T02:28:58.409Z,9.18
2019-04-07T02:29:57.973Z,9.15
2019-04-07T02:30:58.788Z,9.18
2019-04-07T02:31:58.502Z,9.19
2019-04-07T02:32:58.299Z,9.22
2019-04-07T02:33:57.735Z,9.19
2019-04-07T02:34:57.726Z,9.24
2019-04-07T02:36:13.625Z,9.23
2019-04-07T02:36:58.254Z,9.23
2019-04-07T02:37:57.715Z,9.12
2019-04-07T02:38:58.169Z,9.18
2019-04-07T02:39:59.982Z,9.06
2019-04-07T02:40:57.758Z,9.09
2019-04-07T02:41:57.667Z,9.12
2019-04-07T02:42:59.224Z,9.15
2019-04-07T02:43:57.654Z,9.12
2019-04-07T02:44:57.640Z,9.12
2019-04-07T02:45:57.879Z,9.06
2019-04-07T02:46:59.223Z,9.12
2019-04-07T02:47:57.848Z,8.96
2019-04-07T02:48:59.227Z,9.12
2019-04-07T02:49:57.603Z,9.03
2019-04-07T02:50:57.597Z,8.99
2019-04-07T02:51:57.575Z,8.99
2019-04-07T02:52:57.566Z,8.96
2019-04-07T02:53:58.414Z,8.99
2019-04-07T02:54:57.555Z,8.99
2019-04-07T02:55:57.583Z,8.95
2019-04-07T02:56:57.535Z,8.96
2019-04-07T02:57:58.278Z,8.96
2019-04-07T02:58:58.123Z,8.95
2019-04-07T02:59:57.831Z,8.96
2019-04-07T03:00:57.785Z,8.93
2019-04-07T03:01:57.637Z,8.93
2019-04-07T03:02:58.074Z,8.88
2019-04-07T03:03:57.705Z,8.98
2019-04-07T03:04:57.464Z,8.96
2019-04-07T03:05:58.096Z,8.88
2019-04-07T03:06:58.460Z,8.83
2019-04-07T03:07:57.510Z,8.83
2019-04-07T03:08:57.426Z,8.83
2019-04-07T03:09:57.435Z,8.72
2019-04-07T03:10:57.446Z,8.74
2019-04-07T03:11:57.755Z,8.80
2019-04-07T03:12:57.566Z,8.72
2019-04-07T03:13:58.524Z,8.75
2019-04-07T03:14:57.558Z,8.75
2019-04-07T03:15:57.855Z,8.70
2019-04-07T03:16:57.853Z,8.68
2019-04-07T03:17:57.430Z,8.68
2019-04-07T03:18:57.986Z,8.70
2019-04-07T03:19:59.232Z,8.55
2019-04-07T03:20:57.317Z,8.57
2019-04-07T03:21:57.826Z,8.52
2019-04-07T03:22:57.303Z,8.59
2019-04-07T03:23:57.290Z,8.55
2019-04-07T03:24:58.127Z,8.56
2019-04-07T03:25:58.113Z,8.55
2019-04-07T03:26:57.266Z,8.55
2019-04-07T03:27:57.393Z,8.52
2019-04-07T03:28:57.975Z,8.52
2019-04-07T03:29:57.233Z,8.55
2019-04-07T03:30:59.028Z,8.52
2019-04-07T03:31:59.511Z,8.57
2019-04-07T03:32:57.963Z,8.52
2019-04-07T03:33:58.734Z,8.53
2019-04-07T03:34:58.192Z,8.53
2019-04-07T03:36:01.783Z,8.56
2019-04-07T03:37:25.816Z,8.56
2019-04-07T03:37:57.361Z,8.47
2019-04-07T03:38:57.872Z,8.53
2019-04-07T03:39:57.165Z,8.49
2019-04-07T03:40:57.133Z,8.53
2019-04-07T03:41:57.128Z,8.52
2019-04-07T03:42:57.387Z,8.56
2019-04-07T03:43:57.123Z,8.53
2019-04-07T03:44:57.096Z,8.53
2019-04-07T03:45:57.289Z,8.57
2019-04-07T03:46:57.222Z,8.60
2019-04-07T03:47:57.076Z,8.52
2019-04-07T03:48:57.939Z,8.41
2019-04-07T03:49:57.169Z,8.39
2019-04-07T03:50:57.076Z,8.39
2019-04-07T03:51:58.086Z,8.49
2019-04-07T03:52:58.780Z,8.46
2019-04-07T03:53:57.013Z,8.52
2019-04-07T03:54:57.202Z,8.35
2019-04-07T03:55:57.797Z,8.47
2019-04-07T03:56:56.988Z,8.42
2019-04-07T03:57:57.034Z,8.39
2019-04-07T03:58:57.871Z,8.41
2019-04-07T03:59:57.797Z,8.39
2019-04-07T04:00:56.960Z,8.37
2019-04-07T04:01:57.465Z,8.28
2019-04-07T04:02:56.932Z,8.37
2019-04-07T04:03:56.943Z,8.38
2019-04-07T04:04:57.674Z,8.38
2019-04-07T04:05:57.317Z,8.26
2019-04-07T04:06:56.956Z,8.28
2019-04-07T04:07:56.889Z,8.21
2019-04-07T04:08:56.878Z,8.29
2019-04-07T04:09:58.019Z,8.31
2019-04-07T04:10:57.863Z,8.38
2019-04-07T04:11:56.890Z,8.32
2019-04-07T04:12:56.847Z,8.37
2019-04-07T04:13:56.832Z,8.31
2019-04-07T04:14:56.961Z,8.29
2019-04-07T04:15:56.834Z,8.32
2019-04-07T04:16:57.795Z,8.31
2019-04-07T04:17:57.365Z,8.34
2019-04-07T04:18:56.909Z,8.32
2019-04-07T04:19:57.371Z,8.29
2019-04-07T04:20:57.252Z,8.29
2019-04-07T04:21:56.758Z,8.29
2019-04-07T04:22:57.186Z,8.23
2019-04-07T04:23:57.639Z,8.24
2019-04-07T04:24:57.631Z,8.31
2019-04-07T04:25:56.731Z,8.32
2019-04-07T04:26:57.108Z,8.32
2019-04-07T04:27:59.237Z,8.24
2019-04-07T04:28:56.691Z,8.23
2019-04-07T04:29:56.837Z,8.31
2019-04-07T04:30:56.774Z,8.34
2019-04-07T04:31:57.200Z,8.39
2019-04-07T04:32:56.717Z,8.39
2019-04-07T04:33:56.647Z,8.38
2019-04-07T04:34:57.462Z,8.28
2019-04-07T04:35:56.625Z,8.24
2019-04-07T04:36:56.616Z,8.26
2019-04-07T04:37:56.907Z,8.29
2019-04-07T04:38:56.608Z,8.31
2019-04-07T04:39:58.280Z,8.17
2019-04-07T04:40:56.945Z,8.26
2019-04-07T04:41:57.625Z,8.21
2019-04-07T04:42:56.947Z,8.28
2019-04-07T04:43:56.669Z,8.28
2019-04-07T04:44:56.584Z,8.28
2019-04-07T04:45:56.915Z,8.23
2019-04-07T04:46:56.528Z,8.21
2019-04-07T04:47:56.512Z,8.21
2019-04-07T04:48:56.789Z,8.17
2019-04-07T04:49:56.496Z,8.20
2019-04-07T04:50:56.488Z,8.23
2019-04-07T04:51:57.219Z,8.24
2019-04-07T04:52:56.527Z,8.29
2019-04-07T04:53:56.589Z,8.26
2019-04-07T04:54:57.108Z,8.24
2019-04-07T04:55:56.438Z,8.24
2019-04-07T04:56:56.949Z,8.21
2019-04-07T04:57:58.281Z,8.26
2019-04-07T04:58:56.595Z,8.21
2019-04-07T04:59:56.400Z,8.23
2019-04-07T05:00:56.536Z,8.24
2019-04-07T05:01:56.497Z,8.23
2019-04-07T05:02:57.159Z,8.26
2019-04-07T05:03:56.368Z,8.28
2019-04-07T05:04:57.358Z,8.23
2019-04-07T05:05:56.427Z,8.26
2019-04-07T05:06:57.068Z,8.31
2019-04-07T05:08:02.720Z,8.26
2019-04-07T05:08:56.555Z,8.26
2019-04-07T05:09:56.812Z,8.24
2019-04-07T05:10:56.550Z,8.26
2019-04-07T05:11:56.494Z,8.29
2019-04-07T05:12:56.281Z,8.26
2019-04-07T05:13:56.271Z,8.28
2019-04-07T05:14:56.260Z,8.20
2019-04-07T05:15:56.259Z,8.38
2019-04-07T05:16:56.249Z,8.38
2019-04-07T05:17:56.236Z,8.39
2019-04-07T05:18:56.230Z,8.44
2019-04-07T05:19:56.613Z,8.35
2019-04-07T05:20:56.357Z,8.46
2019-04-07T05:21:56.189Z,8.49
2019-04-07T05:22:56.191Z,8.50
2019-04-07T05:23:56.192Z,8.53
2019-04-07T05:24:56.646Z,8.57
2019-04-07T05:25:56.162Z,8.53
2019-04-07T05:26:56.150Z,8.57
2019-04-07T05:27:56.997Z,8.60
2019-04-07T05:28:56.133Z,8.60
2019-04-07T05:29:56.689Z,8.70
2019-04-07T05:30:56.875Z,8.72
2019-04-07T05:31:56.635Z,8.75
2019-04-07T05:32:57.363Z,8.75
2019-04-07T05:33:56.567Z,8.80
2019-04-07T05:34:56.702Z,8.81
2019-04-07T05:35:56.071Z,8.86
2019-04-07T05:36:56.178Z,8.81
2019-04-07T05:38:02.745Z,8.98
2019-04-07T05:38:56.320Z,8.93
2019-04-07T05:39:56.547Z,9.01
2019-04-07T05:40:56.415Z,9.08
2019-04-07T05:41:56.024Z,9.11
2019-04-07T05:42:56.007Z,9.12
2019-04-07T05:43:55.998Z,9.19
2019-04-07T05:44:56.076Z,9.18
2019-04-07T05:45:56.390Z,9.30
2019-04-07T05:46:56.102Z,9.36
2019-04-07T05:47:55.966Z,9.50
2019-04-07T05:48:56.637Z,9.55
2019-04-07T05:49:58.822Z,9.62
2019-04-07T05:50:58.943Z,9.60
2019-04-07T05:51:56.604Z,9.73
2019-04-07T05:52:56.517Z,9.72
2019-04-07T05:53:55.908Z,9.84
2019-04-07T05:54:56.282Z,9.85
2019-04-07T05:55:56.277Z,10.02
2019-04-07T05:56:58.610Z,10.05
2019-04-07T05:57:55.877Z,10.18
2019-04-07T05:58:55.947Z,10.26
2019-04-07T05:59:55.978Z,10.21
2019-04-07T06:00:56.846Z,10.30
2019-04-07T06:02:00.764Z,10.35
2019-04-07T06:02:56.029Z,10.42
2019-04-07T06:03:56.598Z,10.45
2019-04-07T06:04:58.486Z,10.61
2019-04-07T06:05:56.109Z,10.75
2019-04-07T06:06:56.359Z,10.78
2019-04-07T06:07:55.903Z,10.60
2019-04-07T06:08:55.799Z,10.72
2019-04-07T06:09:55.791Z,10.78
2019-04-07T06:10:59.962Z,10.78
2019-04-07T06:11:55.797Z,10.86
2019-04-07T06:12:56.443Z,10.87
2019-04-07T06:13:56.526Z,11.03
2019-04-07T06:14:56.387Z,11.15
2019-04-07T06:15:56.494Z,11.11
2019-04-07T06:16:55.973Z,11.18
2019-04-07T06:17:59.741Z,11.23
2019-04-07T06:18:55.737Z,11.23
2019-04-07T06:19:55.789Z,11.16
2019-04-07T06:20:56.422Z,11.34
2019-04-07T06:21:55.716Z,11.36
2019-04-07T06:22:56.387Z,11.43
2019-04-07T06:23:59.413Z,11.51
2019-04-07T06:24:56.026Z,11.51
2019-04-07T06:25:57.337Z,11.54
2019-04-07T06:26:56.456Z,11.54
2019-04-07T06:27:55.677Z,11.64
2019-04-07T06:28:58.496Z,11.66
2019-04-07T06:29:58.978Z,11.76
2019-04-07T06:30:59.439Z,11.76
2019-04-07T06:31:56.233Z,11.77
2019-04-07T06:32:55.646Z,11.84
2019-04-07T06:33:55.647Z,11.99
2019-04-07T06:34:55.635Z,11.95
2019-04-07T06:35:56.186Z,12.07
2019-04-07T06:36:56.499Z,12.07
2019-04-07T06:37:57.728Z,12.11
2019-04-07T06:38:55.879Z,12.15
2019-04-07T06:39:57.062Z,12.17
2019-04-07T06:41:00.592Z,12.30
2019-04-07T06:41:58.928Z,12.25
2019-04-07T06:42:56.762Z,12.33
2019-04-07T06:44:08.918Z,12.43
2019-04-07T06:44:56.312Z,12.44
2019-04-07T06:45:56.231Z,12.44
2019-04-07T06:46:57.912Z,12.46
2019-04-07T06:47:56.275Z,12.59
2019-04-07T06:48:56.027Z,12.72
2019-04-07T06:49:55.553Z,12.73
2019-04-07T06:50:58.394Z,12.86
2019-04-07T06:51:55.627Z,12.93
2019-04-07T06:52:55.537Z,13.06
2019-04-07T06:53:55.679Z,13.14
2019-04-07T06:54:56.303Z,13.32
2019-04-07T06:55:59.019Z,13.54
2019-04-07T06:56:55.551Z,13.49
2019-04-07T06:57:55.519Z,13.63
2019-04-07T06:58:55.691Z,13.65
2019-04-07T06:59:55.639Z,13.64
2019-04-07T07:00:56.729Z,13.79
2019-04-07T07:01:58.167Z,13.86
2019-04-07T07:02:55.499Z,13.96
2019-04-07T07:03:55.494Z,14.05
2019-04-07T07:04:56.107Z,14.09
2019-04-07T07:05:56.136Z,14.15
2019-04-07T07:06:55.718Z,14.28
2019-04-07T07:07:56.285Z,14.34
2019-04-07T07:08:57.398Z,14.44
2019-04-07T07:09:59.662Z,14.49
2019-04-07T07:10:55.473Z,14.48
2019-04-07T07:11:56.003Z,14.48
2019-04-07T07:13:00.071Z,14.56
2019-04-07T07:13:55.459Z,14.53
2019-04-07T07:14:56.121Z,14.58
2019-04-07T07:15:55.551Z,14.55
2019-04-07T07:16:55.475Z,14.63
2019-04-07T07:17:58.609Z,14.71
2019-04-07T07:18:56.090Z,14.87
2019-04-07T07:19:57.242Z,14.90
2019-04-07T07:20:59.770Z,14.93
2019-04-07T07:21:55.767Z,15.07
2019-04-07T07:22:55.980Z,15.19
2019-04-07T07:23:55.908Z,15.32
2019-04-07T07:24:59.298Z,15.35
2019-04-07T07:25:55.573Z,15.40
2019-04-07T07:26:57.734Z,15.50
2019-04-07T07:27:55.485Z,15.56
2019-04-07T07:28:56.000Z,15.73
2019-04-07T07:29:56.541Z,15.83
2019-04-07T07:30:55.679Z,15.80
2019-04-07T07:32:01.019Z,15.84
2019-04-07T07:32:55.407Z,15.96
2019-04-07T07:33:56.059Z,15.96
2019-04-07T07:34:55.410Z,16.05
2019-04-07T07:35:55.402Z,16.14
2019-04-07T07:36:57.771Z,16.18
2019-04-07T07:37:58.157Z,16.26
2019-04-07T07:39:00.573Z,16.36
2019-04-07T07:39:55.444Z,16.32
2019-04-07T07:40:55.790Z,16.43
2019-04-07T07:41:56.682Z,16.51
2019-04-07T07:42:58.127Z,16.55
2019-04-07T07:44:00.416Z,16.69
2019-04-07T07:44:58.383Z,16.65
2019-04-07T07:45:59.033Z,16.67
2019-04-07T07:46:55.502Z,16.74
2019-04-07T07:47:55.440Z,16.83
2019-04-07T07:48:58.786Z,16.88
2019-04-07T07:49:55.375Z,16.87
2019-04-07T07:50:55.817Z,17.01
2019-04-07T07:51:55.994Z,17.10
2019-04-07T07:52:56.103Z,17.10
2019-04-07T07:53:58.629Z,17.07
2019-04-07T07:54:55.461Z,17.12
2019-04-07T07:55:55.478Z,17.10
2019-04-07T07:56:55.915Z,17.22
2019-04-07T07:57:58.131Z,17.19
2019-04-07T07:58:55.425Z,17.34
2019-04-07T07:59:55.413Z,17.39
2019-04-07T08:00:55.560Z,17.43
2019-04-07T08:01:55.548Z,17.47
2019-04-07T08:02:55.785Z,17.41
2019-04-07T08:03:56.676Z,17.37
2019-04-07T08:04:58.384Z,17.35
2019-04-07T08:05:55.343Z,17.38
2019-04-07T08:06:55.453Z,17.41
2019-04-07T08:07:55.998Z,17.46
2019-04-07T08:09:07.759Z,17.50
2019-04-07T08:09:56.723Z,17.37
2019-04-07T08:10:58.380Z,17.19
2019-04-07T08:11:55.410Z,17.13
2019-04-07T08:12:56.251Z,17.12
2019-04-07T08:13:55.480Z,17.10
2019-04-07T08:14:57.477Z,17.10
2019-04-07T08:15:57.187Z,17.07
2019-04-07T08:16:55.462Z,17.01
2019-04-07T08:17:55.321Z,17.07
2019-04-07T08:18:58.227Z,17.10
2019-04-07T08:19:55.681Z,17.09
2019-04-07T08:20:55.812Z,17.19
2019-04-07T08:21:55.335Z,17.35
2019-04-07T08:22:56.091Z,17.22
2019-04-07T08:23:55.708Z,17.30
2019-04-07T08:24:55.937Z,17.32
2019-04-07T08:25:57.096Z,17.31
2019-04-07T08:26:57.205Z,17.37
2019-04-07T08:27:56.459Z,17.53
2019-04-07T08:28:55.362Z,17.57
2019-04-07T08:29:56.034Z,17.71
2019-04-07T08:30:55.719Z,17.54
2019-04-07T08:31:55.576Z,17.69
2019-04-07T08:32:57.869Z,17.68
2019-04-07T08:33:55.897Z,17.66
2019-04-07T08:34:55.929Z,17.63
2019-04-07T08:35:56.200Z,17.65
2019-04-07T08:36:55.306Z,17.53
2019-04-07T08:37:55.630Z,17.59
2019-04-07T08:38:57.033Z,17.50
2019-04-07T08:39:57.018Z,17.52
2019-04-07T08:40:55.420Z,17.63
2019-04-07T08:41:56.030Z,17.62
2019-04-07T08:42:56.060Z,17.73
2019-04-07T08:43:57.718Z,17.86
2019-04-07T08:44:57.213Z,17.83
2019-04-07T08:45:55.376Z,17.73
2019-04-07T08:46:57.872Z,17.69
2019-04-07T08:47:55.438Z,17.65
2019-04-07T08:48:55.362Z,17.54
2019-04-07T08:49:57.583Z,17.54
2019-04-07T08:50:57.264Z,17.57
2019-04-07T08:51:56.044Z,17.57
2019-04-07T08:52:55.479Z,17.68
2019-04-07T08:53:55.249Z,17.66
2019-04-07T08:54:55.565Z,17.71
2019-04-07T08:55:55.319Z,17.79
2019-04-07T08:56:56.828Z,17.83
2019-04-07T08:57:55.260Z,17.91
2019-04-07T08:58:55.242Z,17.99
2019-04-07T08:59:55.243Z,17.99
2019-04-07T09:00:55.233Z,18.09
2019-04-07T09:01:55.861Z,18.08
2019-04-07T09:03:03.108Z,18.17
2019-04-07T09:03:55.866Z,18.24
2019-04-07T09:04:55.873Z,18.21
2019-04-07T09:05:57.406Z,18.26
2019-04-07T09:06:59.379Z,18.31
2019-04-07T09:07:55.809Z,18.36
2019-04-07T09:08:55.213Z,18.38
2019-04-07T09:09:55.557Z,18.45
2019-04-07T09:10:56.584Z,18.48
2019-04-07T09:11:57.270Z,18.45
2019-04-07T09:12:56.761Z,18.56
2019-04-07T09:13:55.827Z,18.56
2019-04-07T09:14:55.646Z,18.39
2019-04-07T09:15:55.635Z,18.45
2019-04-07T09:16:57.917Z,18.51
2019-04-07T09:17:55.539Z,18.46
2019-04-07T09:19:01.107Z,18.46
2019-04-07T09:19:55.395Z,18.43
2019-04-07T09:20:55.199Z,18.49
2019-04-07T09:21:55.886Z,18.43
2019-04-07T09:22:57.030Z,18.49
2019-04-07T09:23:56.395Z,18.48
2019-04-07T09:24:55.176Z,18.57
2019-04-07T09:25:55.172Z,18.54
2019-04-07T09:26:55.708Z,18.45
2019-04-07T09:27:55.811Z,18.51
2019-04-07T09:28:55.879Z,18.54
2019-04-07T09:29:55.822Z,18.56
2019-04-07T09:30:55.160Z,18.43
2019-04-07T09:31:55.164Z,18.46
2019-04-07T09:32:55.830Z,18.48
2019-04-07T09:33:55.158Z,18.43
2019-04-07T09:34:56.151Z,18.51
2019-04-07T09:35:58.765Z,18.46
2019-04-07T09:36:55.666Z,18.58
2019-04-07T09:37:55.885Z,18.52
2019-04-07T09:38:59.722Z,18.54
2019-04-07T09:39:59.529Z,18.61
2019-04-07T09:40:55.918Z,18.66
2019-04-07T09:41:55.578Z,18.70
2019-04-07T09:42:59.254Z,18.76
2019-04-07T09:43:55.251Z,18.68
2019-04-07T09:44:55.140Z,18.70
2019-04-07T09:45:55.135Z,18.70
2019-04-07T09:46:55.148Z,18.70
2019-04-07T09:47:55.250Z,18.75
2019-04-07T09:48:55.247Z,18.74
2019-04-07T09:49:56.688Z,18.68
2019-04-07T09:50:58.297Z,18.67
2019-04-07T09:51:55.141Z,18.61
2019-04-07T09:52:55.126Z,18.64
2019-04-07T09:53:55.429Z,18.54
2019-04-07T09:54:55.668Z,18.64
2019-04-07T09:55:56.853Z,18.64
2019-04-07T09:56:56.212Z,18.70
2019-04-07T09:57:55.962Z,18.70
2019-04-07T09:58:55.647Z,18.76
2019-04-07T09:59:55.684Z,18.68
2019-04-07T10:01:02.112Z,18.71
2019-04-07T10:01:59.247Z,18.68
2019-04-07T10:02:55.123Z,18.74
2019-04-07T10:03:55.099Z,18.75
2019-04-07T10:04:56.629Z,18.70
2019-04-07T10:05:55.087Z,18.67
2019-04-07T10:06:55.096Z,18.70
2019-04-07T10:07:55.114Z,18.70
2019-04-07T10:08:55.458Z,18.66
2019-04-07T10:10:07.680Z,18.63
2019-04-07T10:10:55.925Z,18.64
2019-04-07T10:11:55.471Z,18.64
2019-04-07T10:12:55.441Z,18.63
2019-04-07T10:13:55.429Z,18.66
2019-04-07T10:14:55.274Z,18.66
2019-04-07T10:15:55.082Z,18.64
2019-04-07T10:16:55.073Z,18.63
2019-04-07T10:17:55.495Z,18.63
2019-04-07T10:18:55.231Z,18.63
2019-04-07T10:19:55.086Z,18.66
2019-04-07T10:20:55.696Z,18.68
2019-04-07T10:21:55.168Z,18.74
2019-04-07T10:22:55.317Z,18.68
2019-04-07T10:23:55.264Z,18.71
2019-04-07T10:24:55.989Z,18.81
2019-04-07T10:25:55.046Z,18.85
2019-04-07T10:26:55.246Z,18.86
2019-04-07T10:27:55.603Z,18.82
2019-04-07T10:28:55.357Z,18.93
2019-04-07T10:29:55.639Z,18.91
2019-04-07T10:30:55.044Z,19.07
2019-04-07T10:31:55.347Z,18.98
2019-04-07T10:32:55.250Z,19.15
2019-04-07T10:33:55.029Z,19.07
2019-04-07T10:34:55.443Z,19.05
2019-04-07T10:35:55.043Z,19.13
2019-04-07T10:36:55.728Z,19.05
2019-04-07T10:37:55.173Z,19.12
2019-04-07T10:39:57.361Z,19.09
2019-04-07T10:40:55.561Z,19.16
2019-04-07T10:41:58.892Z,19.15
2019-04-07T10:42:57.220Z,19.15
2019-04-07T10:43:55.732Z,19.08
2019-04-07T10:44:55.034Z,19.20
2019-04-07T10:45:55.263Z,19.08
2019-04-07T10:46:55.007Z,19.16
2019-04-07T10:47:55.201Z,19.20
2019-04-07T10:48:55.753Z,19.23
2019-04-07T10:50:00.676Z,19.20
2019-04-07T10:50:55.554Z,19.27
2019-04-07T10:51:55.043Z,19.20
2019-04-07T10:52:56.182Z,19.42
2019-04-07T10:53:55.017Z,19.30
2019-04-07T10:54:55.019Z,19.42
2019-04-07T10:55:55.071Z,19.45
2019-04-07T10:56:55.230Z,19.26
2019-04-07T10:57:54.987Z,19.41
2019-04-07T10:58:56.625Z,19.37
2019-04-07T10:59:55.593Z,19.32
2019-04-07T11:00:55.006Z,19.31
2019-04-07T11:01:55.191Z,19.39
2019-04-07T11:02:56.937Z,19.31
2019-04-07T11:03:56.422Z,19.42
2019-04-07T11:04:55.228Z,19.35
2019-04-07T11:05:55.008Z,19.27
2019-04-07T11:06:54.986Z,19.32
2019-04-07T11:07:55.809Z,19.37
2019-04-07T11:08:55.463Z,19.50
2019-04-07T11:09:54.994Z,19.50
2019-04-07T11:10:55.538Z,19.49
2019-04-07T11:11:54.989Z,19.59
2019-04-07T11:12:54.964Z,19.56
2019-04-07T11:13:55.469Z,19.59
2019-04-07T11:14:55.866Z,19.53
2019-04-07T11:15:55.219Z,19.52
2019-04-07T11:16:55.000Z,19.50
2019-04-07T11:17:54.971Z,19.44
2019-04-07T11:18:55.036Z,19.44
2019-04-07T11:19:54.962Z,19.49
2019-04-07T11:20:55.707Z,19.47
2019-04-07T11:21:55.571Z,19.50
2019-04-07T11:22:54.954Z,19.56
2019-04-07T11:23:54.949Z,19.68
2019-04-07T11:24:55.733Z,19.63
2019-04-07T11:25:54.957Z,19.57
2019-04-07T11:26:55.068Z,19.54
2019-04-07T11:27:55.061Z,19.60
2019-04-07T11:28:55.593Z,19.71
2019-04-07T11:29:55.007Z,19.67
2019-04-07T11:30:54.935Z,19.70
2019-04-07T11:31:54.985Z,19.75
2019-04-07T11:32:54.957Z,19.71
2019-04-07T11:33:55.522Z,19.75
2019-04-07T11:34:54.973Z,19.63
2019-04-07T11:35:54.937Z,19.57
2019-04-07T11:36:54.932Z,19.60
2019-04-07T11:37:54.928Z,19.60
2019-04-07T11:38:54.946Z,19.57
2019-04-07T11:39:54.928Z,19.53
2019-04-07T11:40:54.958Z,19.64
2019-04-07T11:41:55.719Z,19.71
2019-04-07T11:42:55.586Z,19.67
2019-04-07T11:43:54.922Z,19.68
2019-04-07T11:44:54.925Z,19.70
2019-04-07T11:46:00.105Z,19.72
2019-04-07T11:46:54.913Z,19.75
2019-04-07T11:47:54.980Z,19.81
2019-04-07T11:48:55.934Z,19.92
2019-04-07T11:49:55.177Z,19.87
2019-04-07T11:50:54.922Z,19.84
2019-04-07T11:51:55.551Z,19.89
2019-04-07T11:52:55.113Z,19.87
2019-04-07T11:53:54.940Z,19.79
2019-04-07T11:54:55.398Z,19.77
2019-04-07T11:55:54.904Z,19.79
2019-04-07T11:56:55.614Z,19.82
2019-04-07T11:58:06.394Z,19.79
2019-04-07T11:58:55.264Z,19.74
2019-04-07T11:59:55.852Z,19.74
2019-04-07T12:02:19.832Z,19.86
2019-04-07T12:02:55.603Z,19.87
2019-04-07T12:03:55.790Z,19.90
2019-04-07T12:04:55.364Z,19.99
2019-04-07T12:05:55.155Z,20.02
2019-04-07T12:06:56.357Z,19.86
2019-04-07T12:07:58.335Z,19.79
2019-04-07T12:08:55.652Z,19.82
2019-04-07T12:09:56.320Z,19.75
2019-04-07T12:11:01.711Z,19.77
2019-04-07T12:11:54.988Z,19.81
2019-04-07T12:12:54.955Z,19.72
2019-04-07T12:13:54.890Z,19.79
2019-04-07T12:14:54.884Z,19.78
2019-04-07T12:15:56.055Z,19.74
2019-04-07T12:16:57.932Z,19.74
2019-04-07T12:17:55.614Z,19.72
2019-04-07T12:18:55.546Z,19.67
2019-04-07T12:19:56.785Z,19.72
2019-04-07T12:20:54.874Z,19.75
2019-04-07T12:21:55.899Z,19.81
2019-04-07T12:22:54.979Z,19.93
2019-04-07T12:23:55.338Z,20.00
2019-04-07T12:24:59.240Z,19.89
2019-04-07T12:25:55.709Z,19.97
2019-04-07T12:26:54.986Z,19.94
2019-04-07T12:27:54.914Z,20.07
2019-04-07T12:28:54.862Z,20.09
2019-04-07T12:29:54.857Z,20.12
2019-04-07T12:30:54.843Z,20.12
2019-04-07T12:31:54.851Z,20.19
2019-04-07T12:32:55.176Z,20.26
2019-04-07T12:33:54.939Z,20.18
2019-04-07T12:34:54.842Z,20.25
2019-04-07T12:35:56.232Z,20.14
2019-04-07T12:36:54.857Z,20.14
2019-04-07T12:37:57.898Z,20.23
2019-04-07T12:38:55.291Z,20.18
2019-04-07T12:39:55.507Z,20.23
2019-04-07T12:41:09.837Z,20.22
2019-04-07T12:41:57.237Z,20.11
2019-04-07T12:42:54.839Z,20.11
2019-04-07T12:43:55.173Z,20.09
2019-04-07T12:44:55.523Z,20.05
2019-04-07T12:45:54.895Z,20.09
2019-04-07T12:46:55.646Z,20.26
2019-04-07T12:47:54.825Z,20.23
2019-04-07T12:48:55.400Z,20.25
2019-04-07T12:49:55.196Z,20.27
2019-04-07T12:50:55.270Z,20.26
2019-04-07T12:51:56.067Z,20.27
2019-04-07T12:52:54.814Z,20.30
2019-04-07T12:53:54.818Z,20.27
2019-04-07T12:54:54.811Z,20.29
2019-04-07T12:55:59.095Z,20.27
2019-04-07T12:56:57.625Z,20.23
2019-04-07T12:57:55.479Z,20.23
2019-04-07T12:58:54.811Z,20.30
2019-04-07T12:59:55.119Z,20.29
2019-04-07T13:00:59.953Z,20.29
2019-04-07T13:01:54.806Z,20.27
2019-04-07T13:02:55.490Z,20.29
2019-04-07T13:03:54.817Z,20.30